sensor_id;sensor_type;location;lat;lon;timestamp;temperature;humidity
1468;DHT22;727;48.892;9.544;2023-02-16T00:01:02;0.30;99.90
1468;DHT22;727;48.892;9.544;2023-02-16T00:03:34;0.20;99.90
1468;DHT22;727;48.892;9.544;2023-02-16T00:06:00;0.10;99.90
1468;DHT22;727;48.892;9.544;2023-02-16T00:08:27;0.20;99.90
1468;DHT22;727;48.892;9.544;2023-02-16T00:10:54;0.10;99.90
1468;DHT22;727;48.892;9.544;2023-02-16T00:13:38;0.20;99.90
1468;DHT22;727;48.892;9.544;2023-02-16T00:16:15;0.20;99.90
1468;DHT22;727;48.892;9.544;2023-02-16T00:18:42;0.10;99.90
1468;DHT22;727;48.892;9.544;2023-02-16T00:21:09;0.10;99.90
1468;DHT22;727;48.892;9.544;2023-02-16T00:23:36;0.10;99.90
1468;DHT22;727;48.892;9.544;2023-02-16T00:26:04;0.10;99.90
1468;DHT22;727;48.892;9.544;2023-02-16T00:28:31;0.00;99.90
1468;DHT22;727;48.892;9.544;2023-02-16T00:30:58;0.00;99.90
1468;DHT22;727;48.892;9.544;2023-02-16T00:33:26;-0.10;99.90
1468;DHT22;727;48.892;9.544;2023-02-16T00:35:52;-0.10;99.90
1468;DHT22;727;48.892;9.544;2023-02-16T00:38:19;-0.20;99.90
1468;DHT22;727;48.892;9.544;2023-02-16T00:40:46;-0.20;99.90
1468;DHT22;727;48.892;9.544;2023-02-16T00:43:22;-0.20;99.90
1468;DHT22;727;48.892;9.544;2023-02-16T00:45:49;-0.20;99.90
1468;DHT22;727;48.892;9.544;2023-02-16T00:48:16;-0.20;99.90
1468;DHT22;727;48.892;9.544;2023-02-16T00:50:44;-0.20;99.90
1468;DHT22;727;48.892;9.544;2023-02-16T00:53:11;-0.20;99.90
1468;DHT22;727;48.892;9.544;2023-02-16T00:55:40;-0.20;99.90
1468;DHT22;727;48.892;9.544;2023-02-16T00:58:12;-0.20;99.90
1468;DHT22;727;48.892;9.544;2023-02-16T01:00:42;-0.20;99.90
1468;DHT22;727;48.892;9.544;2023-02-16T01:03:12;-0.20;99.90
1468;DHT22;727;48.892;9.544;2023-02-16T01:05:40;-0.20;99.90
1468;DHT22;727;48.892;9.544;2023-02-16T01:08:11;-0.10;99.90
1468;DHT22;727;48.892;9.544;2023-02-16T01:10:56;-0.20;99.90
1468;DHT22;727;48.892;9.544;2023-02-16T01:13:39;-0.20;99.90
1468;DHT22;727;48.892;9.544;2023-02-16T01:16:16;-0.30;99.90
1468;DHT22;727;48.892;9.544;2023-02-16T01:18:43;-0.30;99.90
1468;DHT22;727;48.892;9.544;2023-02-16T01:21:10;-0.30;99.90
1468;DHT22;727;48.892;9.544;2023-02-16T01:23:38;-0.40;99.90
1468;DHT22;727;48.892;9.544;2023-02-16T01:26:09;-0.30;99.90
1468;DHT22;727;48.892;9.544;2023-02-16T01:28:37;-0.30;99.90
1468;DHT22;727;48.892;9.544;2023-02-16T01:31:04;-0.20;99.90
1468;DHT22;727;48.892;9.544;2023-02-16T01:33:31;-0.30;99.90
1468;DHT22;727;48.892;9.544;2023-02-16T01:35:57;-0.40;99.90
1468;DHT22;727;48.892;9.544;2023-02-16T01:38:26;-0.40;99.90
1468;DHT22;727;48.892;9.544;2023-02-16T01:41:04;-0.50;99.90
1468;DHT22;727;48.892;9.544;2023-02-16T01:43:41;-0.50;99.90
1468;DHT22;727;48.892;9.544;2023-02-16T01:46:13;-0.40;99.90
1468;DHT22;727;48.892;9.544;2023-02-16T01:48:42;-0.40;99.90
1468;DHT22;727;48.892;9.544;2023-02-16T01:51:13;-0.50;99.90
1468;DHT22;727;48.892;9.544;2023-02-16T01:53:44;-0.50;99.90
1468;DHT22;727;48.892;9.544;2023-02-16T01:56:17;-0.50;99.90
1468;DHT22;727;48.892;9.544;2023-02-16T01:58:51;-0.60;99.90
1468;DHT22;727;48.892;9.544;2023-02-16T02:01:41;-0.60;99.90
1468;DHT22;727;48.892;9.544;2023-02-16T02:04:39;-0.50;99.90
1468;DHT22;727;48.892;9.544;2023-02-16T02:07:27;-0.60;99.90
1468;DHT22;727;48.892;9.544;2023-02-16T02:10:02;-0.60;99.90
1468;DHT22;727;48.892;9.544;2023-02-16T02:12:39;-0.60;99.90
1468;DHT22;727;48.892;9.544;2023-02-16T02:15:08;-0.60;99.90
1468;DHT22;727;48.892;9.544;2023-02-16T02:17:35;-0.60;99.90
1468;DHT22;727;48.892;9.544;2023-02-16T02:20:07;-0.60;99.90
1468;DHT22;727;48.892;9.544;2023-02-16T02:23:05;-0.60;99.90
1468;DHT22;727;48.892;9.544;2023-02-16T02:29:00;-0.50;99.90
1468;DHT22;727;48.892;9.544;2023-02-16T02:31:38;-0.50;99.90
1468;DHT22;727;48.892;9.544;2023-02-16T02:34:15;-0.60;99.90
1468;DHT22;727;48.892;9.544;2023-02-16T02:36:48;-0.70;99.90
1468;DHT22;727;48.892;9.544;2023-02-16T02:39:26;-0.80;99.90
1468;DHT22;727;48.892;9.544;2023-02-16T02:42:02;-0.80;99.90
1468;DHT22;727;48.892;9.544;2023-02-16T02:44:33;-0.80;99.90
1468;DHT22;727;48.892;9.544;2023-02-16T02:47:02;-0.80;99.90
1468;DHT22;727;48.892;9.544;2023-02-16T02:49:29;-0.70;99.90
1468;DHT22;727;48.892;9.544;2023-02-16T02:51:57;-0.60;99.90
1468;DHT22;727;48.892;9.544;2023-02-16T02:54:26;-0.60;99.90
1468;DHT22;727;48.892;9.544;2023-02-16T02:57:14;-0.50;99.90
1468;DHT22;727;48.892;9.544;2023-02-16T03:00:03;-0.60;99.90
1468;DHT22;727;48.892;9.544;2023-02-16T03:02:50;-0.60;99.90
1468;DHT22;727;48.892;9.544;2023-02-16T03:05:18;-0.60;99.90
1468;DHT22;727;48.892;9.544;2023-02-16T03:07:47;-0.60;99.90
1468;DHT22;727;48.892;9.544;2023-02-16T03:10:18;-0.60;99.90
1468;DHT22;727;48.892;9.544;2023-02-16T03:13:05;-0.60;99.90
1468;DHT22;727;48.892;9.544;2023-02-16T03:15:34;-0.60;99.90
1468;DHT22;727;48.892;9.544;2023-02-16T03:18:02;-0.60;99.90
1468;DHT22;727;48.892;9.544;2023-02-16T03:20:48;-0.70;99.90
1468;DHT22;727;48.892;9.544;2023-02-16T03:23:33;-0.70;99.90
1468;DHT22;727;48.892;9.544;2023-02-16T03:26:18;-0.80;99.90
1468;DHT22;727;48.892;9.544;2023-02-16T03:29:04;-0.90;99.90
1468;DHT22;727;48.892;9.544;2023-02-16T03:31:49;-0.90;99.90
1468;DHT22;727;48.892;9.544;2023-02-16T03:34:18;-0.90;99.90
1468;DHT22;727;48.892;9.544;2023-02-16T03:36:47;-1.00;99.90
1468;DHT22;727;48.892;9.544;2023-02-16T03:39:15;-1.00;99.90
1468;DHT22;727;48.892;9.544;2023-02-16T03:41:45;-1.00;99.90
1468;DHT22;727;48.892;9.544;2023-02-16T03:44:13;-1.00;99.90
1468;DHT22;727;48.892;9.544;2023-02-16T03:46:40;-1.00;99.90
1468;DHT22;727;48.892;9.544;2023-02-16T03:49:08;-1.00;99.90
1468;DHT22;727;48.892;9.544;2023-02-16T03:51:35;-1.00;99.90
1468;DHT22;727;48.892;9.544;2023-02-16T03:54:02;-1.10;99.90
1468;DHT22;727;48.892;9.544;2023-02-16T03:56:28;-1.10;99.90
1468;DHT22;727;48.892;9.544;2023-02-16T03:58:55;-1.10;99.90
1468;DHT22;727;48.892;9.544;2023-02-16T04:01:22;-1.00;99.90
1468;DHT22;727;48.892;9.544;2023-02-16T04:03:49;-1.00;99.90
1468;DHT22;727;48.892;9.544;2023-02-16T04:06:17;-1.00;99.90
1468;DHT22;727;48.892;9.544;2023-02-16T04:08:44;-1.00;99.90
1468;DHT22;727;48.892;9.544;2023-02-16T04:11:10;-1.00;99.90
1468;DHT22;727;48.892;9.544;2023-02-16T04:13:55;-1.00;99.90
1468;DHT22;727;48.892;9.544;2023-02-16T04:16:21;-0.90;99.90
1468;DHT22;727;48.892;9.544;2023-02-16T04:18:48;-0.90;99.90
1468;DHT22;727;48.892;9.544;2023-02-16T04:21:16;-0.90;99.90
1468;DHT22;727;48.892;9.544;2023-02-16T04:23:43;-0.90;99.90
1468;DHT22;727;48.892;9.544;2023-02-16T04:26:10;-0.90;99.90
1468;DHT22;727;48.892;9.544;2023-02-16T04:28:36;-0.90;99.90
1468;DHT22;727;48.892;9.544;2023-02-16T04:31:03;-0.90;99.90
1468;DHT22;727;48.892;9.544;2023-02-16T04:33:30;-0.90;99.90
1468;DHT22;727;48.892;9.544;2023-02-16T04:35:57;-1.00;99.90
1468;DHT22;727;48.892;9.544;2023-02-16T04:38:25;-1.00;99.90
1468;DHT22;727;48.892;9.544;2023-02-16T04:40:51;-1.10;99.90
1468;DHT22;727;48.892;9.544;2023-02-16T04:43:18;-1.10;99.90
1468;DHT22;727;48.892;9.544;2023-02-16T04:45:45;-1.10;99.90
1468;DHT22;727;48.892;9.544;2023-02-16T04:48:12;-1.10;99.90
1468;DHT22;727;48.892;9.544;2023-02-16T04:50:38;-1.10;99.90
1468;DHT22;727;48.892;9.544;2023-02-16T04:53:05;-1.10;99.90
1468;DHT22;727;48.892;9.544;2023-02-16T04:55:33;-1.10;99.90
1468;DHT22;727;48.892;9.544;2023-02-16T04:58:00;-1.00;99.90
1468;DHT22;727;48.892;9.544;2023-02-16T05:00:27;-1.00;99.90
1468;DHT22;727;48.892;9.544;2023-02-16T05:02:53;-1.00;99.90
1468;DHT22;727;48.892;9.544;2023-02-16T05:05:20;-1.00;99.90
1468;DHT22;727;48.892;9.544;2023-02-16T05:07:47;-1.00;99.90
1468;DHT22;727;48.892;9.544;2023-02-16T05:10:13;-1.00;99.90
1468;DHT22;727;48.892;9.544;2023-02-16T05:12:42;-1.00;99.90
1468;DHT22;727;48.892;9.544;2023-02-16T05:15:26;-1.00;99.90
1468;DHT22;727;48.892;9.544;2023-02-16T05:17:53;-1.00;99.90
1468;DHT22;727;48.892;9.544;2023-02-16T05:20:19;-1.10;99.90
1468;DHT22;727;48.892;9.544;2023-02-16T05:23:07;-1.20;99.90
1468;DHT22;727;48.892;9.544;2023-02-16T05:25:34;-1.20;99.90
1468;DHT22;727;48.892;9.544;2023-02-16T05:28:02;-1.20;99.90
1468;DHT22;727;48.892;9.544;2023-02-16T05:30:29;-1.20;99.90
1468;DHT22;727;48.892;9.544;2023-02-16T05:32:55;-1.20;99.90
1468;DHT22;727;48.892;9.544;2023-02-16T05:35:22;-1.20;99.90
1468;DHT22;727;48.892;9.544;2023-02-16T05:37:49;-1.20;99.90
1468;DHT22;727;48.892;9.544;2023-02-16T05:40:16;-1.20;99.90
1468;DHT22;727;48.892;9.544;2023-02-16T05:42:42;-1.10;99.90
1468;DHT22;727;48.892;9.544;2023-02-16T05:45:10;-1.10;99.90
1468;DHT22;727;48.892;9.544;2023-02-16T05:47:37;-1.20;99.90
1468;DHT22;727;48.892;9.544;2023-02-16T05:50:05;-1.10;99.90
1468;DHT22;727;48.892;9.544;2023-02-16T05:52:32;-1.20;99.90
1468;DHT22;727;48.892;9.544;2023-02-16T05:54:58;-1.30;99.90
1468;DHT22;727;48.892;9.544;2023-02-16T05:57:25;-1.40;99.90
1468;DHT22;727;48.892;9.544;2023-02-16T05:59:52;-1.40;99.90
1468;DHT22;727;48.892;9.544;2023-02-16T06:02:20;-1.50;99.90
1468;DHT22;727;48.892;9.544;2023-02-16T06:04:46;-1.50;99.90
1468;DHT22;727;48.892;9.544;2023-02-16T06:07:13;-1.40;99.90
1468;DHT22;727;48.892;9.544;2023-02-16T06:09:40;-1.40;99.90
1468;DHT22;727;48.892;9.544;2023-02-16T06:12:07;-1.30;99.90
1468;DHT22;727;48.892;9.544;2023-02-16T06:14:33;-1.40;99.90
1468;DHT22;727;48.892;9.544;2023-02-16T06:17:00;-1.40;99.90
1468;DHT22;727;48.892;9.544;2023-02-16T06:19:29;-1.30;99.90
1468;DHT22;727;48.892;9.544;2023-02-16T06:21:56;-1.30;99.90
1468;DHT22;727;48.892;9.544;2023-02-16T06:24:23;-1.30;99.90
1468;DHT22;727;48.892;9.544;2023-02-16T06:26:50;-1.30;99.90
1468;DHT22;727;48.892;9.544;2023-02-16T06:29:16;-1.30;99.90
1468;DHT22;727;48.892;9.544;2023-02-16T06:31:43;-1.20;99.90
1468;DHT22;727;48.892;9.544;2023-02-16T06:34:10;-1.30;99.90
1468;DHT22;727;48.892;9.544;2023-02-16T06:36:38;-1.30;99.90
1468;DHT22;727;48.892;9.544;2023-02-16T06:39:05;-1.40;99.90
1468;DHT22;727;48.892;9.544;2023-02-16T06:41:31;-1.30;99.90
1468;DHT22;727;48.892;9.544;2023-02-16T06:44:03;-1.30;99.90
1468;DHT22;727;48.892;9.544;2023-02-16T06:46:30;-1.30;99.90
1468;DHT22;727;48.892;9.544;2023-02-16T06:48:57;-1.30;99.90
1468;DHT22;727;48.892;9.544;2023-02-16T06:51:24;-1.20;99.90
1468;DHT22;727;48.892;9.544;2023-02-16T06:53:53;-1.20;99.90
1468;DHT22;727;48.892;9.544;2023-02-16T06:56:19;-1.10;99.90
1468;DHT22;727;48.892;9.544;2023-02-16T06:58:46;-1.10;99.90
1468;DHT22;727;48.892;9.544;2023-02-16T07:01:13;-0.90;99.90
1468;DHT22;727;48.892;9.544;2023-02-16T07:03:41;-0.90;99.90
1468;DHT22;727;48.892;9.544;2023-02-16T07:06:07;-0.90;99.90
1468;DHT22;727;48.892;9.544;2023-02-16T07:08:34;-0.90;99.90
1468;DHT22;727;48.892;9.544;2023-02-16T07:11:02;-0.90;99.90
1468;DHT22;727;48.892;9.544;2023-02-16T07:13:29;-0.90;99.90
1468;DHT22;727;48.892;9.544;2023-02-16T07:15:56;-0.90;99.90
1468;DHT22;727;48.892;9.544;2023-02-16T07:18:23;-0.70;99.90
1468;DHT22;727;48.892;9.544;2023-02-16T07:20:50;-0.60;99.90
1468;DHT22;727;48.892;9.544;2023-02-16T07:23:16;-0.20;99.90
1468;DHT22;727;48.892;9.544;2023-02-16T07:25:43;0.40;99.90
1468;DHT22;727;48.892;9.544;2023-02-16T07:28:11;1.20;99.90
1468;DHT22;727;48.892;9.544;2023-02-16T07:30:38;2.50;99.90
1468;DHT22;727;48.892;9.544;2023-02-16T07:33:08;4.00;99.90
1468;DHT22;727;48.892;9.544;2023-02-16T07:35:35;5.10;99.90
1468;DHT22;727;48.892;9.544;2023-02-16T07:38:03;6.00;99.90
1468;DHT22;727;48.892;9.544;2023-02-16T07:40:30;7.00;99.80
1468;DHT22;727;48.892;9.544;2023-02-16T07:42:58;7.60;95.60
1468;DHT22;727;48.892;9.544;2023-02-16T07:45:26;6.90;92.90
1468;DHT22;727;48.892;9.544;2023-02-16T07:47:54;6.00;93.00
1468;DHT22;727;48.892;9.544;2023-02-16T07:50:21;6.10;95.00
1468;DHT22;727;48.892;9.544;2023-02-16T07:52:48;7.10;95.00
1468;DHT22;727;48.892;9.544;2023-02-16T07:55:14;7.90;92.90
1468;DHT22;727;48.892;9.544;2023-02-16T07:57:41;9.00;91.40
1468;DHT22;727;48.892;9.544;2023-02-16T08:00:09;10.20;86.90
1468;DHT22;727;48.892;9.544;2023-02-16T08:02:39;11.30;81.90
1468;DHT22;727;48.892;9.544;2023-02-16T08:05:06;11.90;77.30
1468;DHT22;727;48.892;9.544;2023-02-16T08:07:33;12.70;75.10
1468;DHT22;727;48.892;9.544;2023-02-16T08:09:59;13.20;71.30
1468;DHT22;727;48.892;9.544;2023-02-16T08:12:27;12.80;68.60
1468;DHT22;727;48.892;9.544;2023-02-16T08:14:53;12.60;68.50
1468;DHT22;727;48.892;9.544;2023-02-16T08:17:20;12.40;67.70
1468;DHT22;727;48.892;9.544;2023-02-16T08:19:49;12.50;68.10
1468;DHT22;727;48.892;9.544;2023-02-16T08:22:16;12.90;67.90
1468;DHT22;727;48.892;9.544;2023-02-16T08:24:43;13.00;66.70
1468;DHT22;727;48.892;9.544;2023-02-16T08:27:10;13.90;65.10
1468;DHT22;727;48.892;9.544;2023-02-16T08:29:37;14.60;63.50
1468;DHT22;727;48.892;9.544;2023-02-16T08:32:04;14.90;61.70
1468;DHT22;727;48.892;9.544;2023-02-16T08:34:34;15.10;59.70
1468;DHT22;727;48.892;9.544;2023-02-16T08:37:02;15.00;59.70
1468;DHT22;727;48.892;9.544;2023-02-16T08:39:30;15.20;59.90
1468;DHT22;727;48.892;9.544;2023-02-16T08:41:59;15.40;60.50
1468;DHT22;727;48.892;9.544;2023-02-16T08:44:27;15.50;59.40
1468;DHT22;727;48.892;9.544;2023-02-16T08:46:57;15.70;59.90
1468;DHT22;727;48.892;9.544;2023-02-16T08:49:24;15.80;59.90
1468;DHT22;727;48.892;9.544;2023-02-16T08:51:53;16.10;59.00
1468;DHT22;727;48.892;9.544;2023-02-16T08:54:23;16.70;57.60
1468;DHT22;727;48.892;9.544;2023-02-16T08:56:51;16.90;56.30
1468;DHT22;727;48.892;9.544;2023-02-16T08:59:20;17.20;57.20
1468;DHT22;727;48.892;9.544;2023-02-16T09:01:47;16.50;56.80
1468;DHT22;727;48.892;9.544;2023-02-16T09:04:15;17.10;57.70
1468;DHT22;727;48.892;9.544;2023-02-16T09:06:44;16.90;56.00
1468;DHT22;727;48.892;9.544;2023-02-16T09:09:13;16.70;56.90
1468;DHT22;727;48.892;9.544;2023-02-16T09:11:43;17.20;57.80
1468;DHT22;727;48.892;9.544;2023-02-16T09:14:10;17.00;57.70
1468;DHT22;727;48.892;9.544;2023-02-16T09:16:37;17.00;58.20
1468;DHT22;727;48.892;9.544;2023-02-16T09:19:10;16.90;58.70
1468;DHT22;727;48.892;9.544;2023-02-16T09:21:39;17.30;58.60
1468;DHT22;727;48.892;9.544;2023-02-16T09:24:06;17.70;57.50
1468;DHT22;727;48.892;9.544;2023-02-16T09:26:35;18.00;56.20
1468;DHT22;727;48.892;9.544;2023-02-16T09:29:05;18.30;56.20
1468;DHT22;727;48.892;9.544;2023-02-16T09:31:34;18.90;56.50
1468;DHT22;727;48.892;9.544;2023-02-16T09:34:04;19.00;56.00
1468;DHT22;727;48.892;9.544;2023-02-16T09:36:32;18.90;55.70
1468;DHT22;727;48.892;9.544;2023-02-16T09:38:59;19.70;55.50
1468;DHT22;727;48.892;9.544;2023-02-16T09:41:31;20.00;53.50
1468;DHT22;727;48.892;9.544;2023-02-16T09:44:09;20.70;54.10
1468;DHT22;727;48.892;9.544;2023-02-16T09:46:40;20.70;52.60
1468;DHT22;727;48.892;9.544;2023-02-16T09:49:15;20.30;52.40
1468;DHT22;727;48.892;9.544;2023-02-16T09:51:53;20.10;52.50
1468;DHT22;727;48.892;9.544;2023-02-16T09:54:32;20.50;53.70
1468;DHT22;727;48.892;9.544;2023-02-16T09:57:06;20.70;52.10
1468;DHT22;727;48.892;9.544;2023-02-16T09:59:46;20.60;52.20
1468;DHT22;727;48.892;9.544;2023-02-16T10:02:28;20.90;53.30
1468;DHT22;727;48.892;9.544;2023-02-16T10:05:12;20.90;51.50
1468;DHT22;727;48.892;9.544;2023-02-16T10:07:53;21.20;52.10
1468;DHT22;727;48.892;9.544;2023-02-16T10:10:23;22.20;50.60
1468;DHT22;727;48.892;9.544;2023-02-16T10:12:53;22.90;49.80
1468;DHT22;727;48.892;9.544;2023-02-16T10:15:24;23.40;50.10
1468;DHT22;727;48.892;9.544;2023-02-16T10:17:55;23.80;49.90
1468;DHT22;727;48.892;9.544;2023-02-16T10:20:27;23.90;46.80
1468;DHT22;727;48.892;9.544;2023-02-16T10:23:01;23.60;46.20
1468;DHT22;727;48.892;9.544;2023-02-16T10:25:38;23.50;46.80
1468;DHT22;727;48.892;9.544;2023-02-16T10:28:15;23.20;46.60
1468;DHT22;727;48.892;9.544;2023-02-16T10:30:48;23.30;48.30
1468;DHT22;727;48.892;9.544;2023-02-16T10:33:20;23.00;45.30
1468;DHT22;727;48.892;9.544;2023-02-16T10:35:55;23.40;44.60
1468;DHT22;727;48.892;9.544;2023-02-16T10:38:26;23.80;43.60
1468;DHT22;727;48.892;9.544;2023-02-16T10:41:00;23.70;43.50
1468;DHT22;727;48.892;9.544;2023-02-16T10:43:41;24.20;43.90
1468;DHT22;727;48.892;9.544;2023-02-16T10:46:16;24.60;41.70
1468;DHT22;727;48.892;9.544;2023-02-16T10:48:45;24.40;42.00
1468;DHT22;727;48.892;9.544;2023-02-16T10:51:15;24.70;42.20
1468;DHT22;727;48.892;9.544;2023-02-16T10:53:45;25.00;40.80
1468;DHT22;727;48.892;9.544;2023-02-16T10:56:23;24.70;40.10
1468;DHT22;727;48.892;9.544;2023-02-16T10:58:52;24.40;41.10
1468;DHT22;727;48.892;9.544;2023-02-16T11:01:27;24.30;42.40
1468;DHT22;727;48.892;9.544;2023-02-16T11:03:58;24.10;41.50
1468;DHT22;727;48.892;9.544;2023-02-16T11:06:25;24.60;40.60
1468;DHT22;727;48.892;9.544;2023-02-16T11:08:53;25.00;40.10
1468;DHT22;727;48.892;9.544;2023-02-16T11:11:34;25.60;40.20
1468;DHT22;727;48.892;9.544;2023-02-16T11:14:05;25.50;39.50
1468;DHT22;727;48.892;9.544;2023-02-16T11:16:35;25.20;39.20
1468;DHT22;727;48.892;9.544;2023-02-16T11:19:04;24.90;39.70
1468;DHT22;727;48.892;9.544;2023-02-16T11:21:44;25.10;39.90
1468;DHT22;727;48.892;9.544;2023-02-16T11:24:22;25.30;40.40
1468;DHT22;727;48.892;9.544;2023-02-16T11:26:59;25.70;38.80
1468;DHT22;727;48.892;9.544;2023-02-16T11:29:26;25.40;39.20
1468;DHT22;727;48.892;9.544;2023-02-16T11:31:55;25.80;38.70
1468;DHT22;727;48.892;9.544;2023-02-16T11:34:30;26.40;38.20
1468;DHT22;727;48.892;9.544;2023-02-16T11:37:03;26.10;39.50
1468;DHT22;727;48.892;9.544;2023-02-16T11:39:35;26.30;37.00
1468;DHT22;727;48.892;9.544;2023-02-16T11:42:05;26.30;37.10
1468;DHT22;727;48.892;9.544;2023-02-16T11:44:35;26.10;37.80
1468;DHT22;727;48.892;9.544;2023-02-16T11:47:06;26.40;36.10
1468;DHT22;727;48.892;9.544;2023-02-16T11:49:36;26.40;36.00
1468;DHT22;727;48.892;9.544;2023-02-16T11:52:18;26.30;35.70
1468;DHT22;727;48.892;9.544;2023-02-16T11:54:51;26.00;35.60
1468;DHT22;727;48.892;9.544;2023-02-16T11:57:24;25.90;35.90
1468;DHT22;727;48.892;9.544;2023-02-16T11:59:51;26.10;36.50
1468;DHT22;727;48.892;9.544;2023-02-16T12:02:40;25.90;36.30
1468;DHT22;727;48.892;9.544;2023-02-16T12:05:26;25.60;36.40
1468;DHT22;727;48.892;9.544;2023-02-16T12:11:04;25.40;35.50
1468;DHT22;727;48.892;9.544;2023-02-16T12:13:39;25.10;36.60
1468;DHT22;727;48.892;9.544;2023-02-16T12:16:20;25.10;36.30
1468;DHT22;727;48.892;9.544;2023-02-16T12:18:58;25.20;36.80
1468;DHT22;727;48.892;9.544;2023-02-16T12:21:34;25.10;36.40
1468;DHT22;727;48.892;9.544;2023-02-16T12:24:09;25.20;36.40
1468;DHT22;727;48.892;9.544;2023-02-16T12:26:47;24.70;36.60
1468;DHT22;727;48.892;9.544;2023-02-16T12:29:36;25.00;36.50
1468;DHT22;727;48.892;9.544;2023-02-16T12:32:26;25.30;36.60
1468;DHT22;727;48.892;9.544;2023-02-16T12:35:12;24.90;36.20
1468;DHT22;727;48.892;9.544;2023-02-16T12:37:44;24.80;36.30
1468;DHT22;727;48.892;9.544;2023-02-16T12:40:23;25.10;36.40
1468;DHT22;727;48.892;9.544;2023-02-16T12:43:00;25.00;35.80
1468;DHT22;727;48.892;9.544;2023-02-16T12:45:33;24.20;36.40
1468;DHT22;727;48.892;9.544;2023-02-16T12:48:06;23.80;37.00
1468;DHT22;727;48.892;9.544;2023-02-16T12:50:40;23.30;37.80
1468;DHT22;727;48.892;9.544;2023-02-16T12:53:17;23.20;37.70
1468;DHT22;727;48.892;9.544;2023-02-16T12:55:53;23.00;38.30
1468;DHT22;727;48.892;9.544;2023-02-16T12:58:23;23.30;37.70
1468;DHT22;727;48.892;9.544;2023-02-16T13:00:53;23.90;37.50
1468;DHT22;727;48.892;9.544;2023-02-16T13:03:28;24.20;37.80
1468;DHT22;727;48.892;9.544;2023-02-16T13:06:16;24.30;36.70
1468;DHT22;727;48.892;9.544;2023-02-16T13:08:51;24.10;36.40
1468;DHT22;727;48.892;9.544;2023-02-16T13:11:24;23.70;36.60
1468;DHT22;727;48.892;9.544;2023-02-16T13:13:58;23.00;37.30
1468;DHT22;727;48.892;9.544;2023-02-16T13:16:34;22.80;37.40
1468;DHT22;727;48.892;9.544;2023-02-16T13:19:02;23.00;37.20
1468;DHT22;727;48.892;9.544;2023-02-16T13:22:10;23.10;37.30
1468;DHT22;727;48.892;9.544;2023-02-16T13:24:49;23.30;37.20
1468;DHT22;727;48.892;9.544;2023-02-16T13:27:31;22.80;37.80
1468;DHT22;727;48.892;9.544;2023-02-16T13:33:15;22.50;39.10
1468;DHT22;727;48.892;9.544;2023-02-16T13:36:03;23.20;37.70
1468;DHT22;727;48.892;9.544;2023-02-16T13:39:04;23.20;37.40
1468;DHT22;727;48.892;9.544;2023-02-16T13:44:41;22.90;38.80
1468;DHT22;727;48.892;9.544;2023-02-16T13:47:13;23.20;38.40
1468;DHT22;727;48.892;9.544;2023-02-16T13:49:44;23.40;37.90
1468;DHT22;727;48.892;9.544;2023-02-16T13:52:28;23.30;37.90
1468;DHT22;727;48.892;9.544;2023-02-16T13:54:58;23.20;38.20
1468;DHT22;727;48.892;9.544;2023-02-16T13:57:54;22.60;39.10
1468;DHT22;727;48.892;9.544;2023-02-16T14:00:27;21.90;40.70
1468;DHT22;727;48.892;9.544;2023-02-16T14:02:57;21.70;40.30
1468;DHT22;727;48.892;9.544;2023-02-16T14:05:33;21.90;40.60
1468;DHT22;727;48.892;9.544;2023-02-16T14:08:18;22.40;40.60
1468;DHT22;727;48.892;9.544;2023-02-16T14:11:03;22.50;39.70
1468;DHT22;727;48.892;9.544;2023-02-16T14:13:32;22.40;40.20
1468;DHT22;727;48.892;9.544;2023-02-16T14:16:03;21.60;40.80
1468;DHT22;727;48.892;9.544;2023-02-16T14:18:41;21.10;41.20
1468;DHT22;727;48.892;9.544;2023-02-16T14:21:17;20.20;43.00
1468;DHT22;727;48.892;9.544;2023-02-16T14:23:53;19.20;44.40
1468;DHT22;727;48.892;9.544;2023-02-16T14:26:22;18.10;46.50
1468;DHT22;727;48.892;9.544;2023-02-16T14:29:11;17.70;47.90
1468;DHT22;727;48.892;9.544;2023-02-16T14:31:43;17.30;49.60
1468;DHT22;727;48.892;9.544;2023-02-16T14:34:17;16.90;50.20
1468;DHT22;727;48.892;9.544;2023-02-16T14:37:23;16.60;50.10
1468;DHT22;727;48.892;9.544;2023-02-16T14:39:55;16.30;51.20
1468;DHT22;727;48.892;9.544;2023-02-16T14:42:31;16.20;51.50
1468;DHT22;727;48.892;9.544;2023-02-16T14:45:16;16.10;52.30
1468;DHT22;727;48.892;9.544;2023-02-16T14:47:53;16.00;53.00
1468;DHT22;727;48.892;9.544;2023-02-16T14:50:37;15.80;53.40
1468;DHT22;727;48.892;9.544;2023-02-16T14:53:25;15.50;54.00
1468;DHT22;727;48.892;9.544;2023-02-16T14:58:59;15.10;55.30
1468;DHT22;727;48.892;9.544;2023-02-16T15:01:27;15.00;55.90
1468;DHT22;727;48.892;9.544;2023-02-16T15:03:55;14.80;57.10
1468;DHT22;727;48.892;9.544;2023-02-16T15:06:28;14.70;58.80
1468;DHT22;727;48.892;9.544;2023-02-16T15:09:00;14.70;57.50
1468;DHT22;727;48.892;9.544;2023-02-16T15:11:30;14.50;57.60
1468;DHT22;727;48.892;9.544;2023-02-16T15:14:06;14.50;58.50
1468;DHT22;727;48.892;9.544;2023-02-16T15:16:37;14.40;59.20
1468;DHT22;727;48.892;9.544;2023-02-16T15:19:10;14.40;59.20
1468;DHT22;727;48.892;9.544;2023-02-16T15:21:37;14.60;58.80
1468;DHT22;727;48.892;9.544;2023-02-16T15:24:05;14.70;58.90
1468;DHT22;727;48.892;9.544;2023-02-16T15:26:34;14.70;58.40
1468;DHT22;727;48.892;9.544;2023-02-16T15:29:20;14.80;58.70
1468;DHT22;727;48.892;9.544;2023-02-16T15:31:48;14.90;58.20
1468;DHT22;727;48.892;9.544;2023-02-16T15:34:27;15.00;57.70
1468;DHT22;727;48.892;9.544;2023-02-16T15:36:54;15.00;57.80
1468;DHT22;727;48.892;9.544;2023-02-16T15:39:25;15.10;58.10
1468;DHT22;727;48.892;9.544;2023-02-16T15:42:08;15.10;57.90
1468;DHT22;727;48.892;9.544;2023-02-16T15:44:37;15.10;58.00
1468;DHT22;727;48.892;9.544;2023-02-16T15:47:08;15.10;58.10
1468;DHT22;727;48.892;9.544;2023-02-16T15:49:36;15.00;58.40
1468;DHT22;727;48.892;9.544;2023-02-16T15:52:07;15.00;58.50
1468;DHT22;727;48.892;9.544;2023-02-16T15:54:38;15.00;58.30
1468;DHT22;727;48.892;9.544;2023-02-16T15:57:11;14.90;58.70
1468;DHT22;727;48.892;9.544;2023-02-16T15:59:45;14.80;59.20
1468;DHT22;727;48.892;9.544;2023-02-16T16:02:14;14.70;59.50
1468;DHT22;727;48.892;9.544;2023-02-16T16:04:43;14.60;59.90
1468;DHT22;727;48.892;9.544;2023-02-16T16:07:13;14.40;61.70
1468;DHT22;727;48.892;9.544;2023-02-16T16:09:41;14.20;63.50
1468;DHT22;727;48.892;9.544;2023-02-16T16:12:12;14.00;65.20
1468;DHT22;727;48.892;9.544;2023-02-16T16:14:47;13.70;65.80
1468;DHT22;727;48.892;9.544;2023-02-16T16:17:17;13.50;66.00
1468;DHT22;727;48.892;9.544;2023-02-16T16:19:45;13.30;67.20
1468;DHT22;727;48.892;9.544;2023-02-16T16:22:28;13.10;68.00
1468;DHT22;727;48.892;9.544;2023-02-16T16:24:56;12.90;68.70
1468;DHT22;727;48.892;9.544;2023-02-16T16:27:28;12.70;70.40
1468;DHT22;727;48.892;9.544;2023-02-16T16:30:10;12.50;71.20
1468;DHT22;727;48.892;9.544;2023-02-16T16:32:38;12.30;72.30
1468;DHT22;727;48.892;9.544;2023-02-16T16:35:18;12.20;73.40
1468;DHT22;727;48.892;9.544;2023-02-16T16:37:48;12.00;74.50
1468;DHT22;727;48.892;9.544;2023-02-16T16:40:21;11.90;76.10
1468;DHT22;727;48.892;9.544;2023-02-16T16:43:13;11.80;77.60
1468;DHT22;727;48.892;9.544;2023-02-16T16:45:44;11.70;79.20
1468;DHT22;727;48.892;9.544;2023-02-16T16:48:16;11.60;80.10
1468;DHT22;727;48.892;9.544;2023-02-16T16:50:43;11.50;80.90
1468;DHT22;727;48.892;9.544;2023-02-16T16:56:22;11.20;82.60
1468;DHT22;727;48.892;9.544;2023-02-16T16:58:50;11.10;84.00
1468;DHT22;727;48.892;9.544;2023-02-16T17:01:19;11.10;85.40
1468;DHT22;727;48.892;9.544;2023-02-16T17:03:46;11.00;87.30
1468;DHT22;727;48.892;9.544;2023-02-16T17:06:13;10.90;88.40
1468;DHT22;727;48.892;9.544;2023-02-16T17:08:40;10.80;89.20